sensor_id;sensor_type;location;lat;lon;timestamp;P1;durP1;ratioP1;P2;durP2;ratioP2
72761;SDS011;60886;55.034;73.150;2022-08-19T00:00:17;4.60;;;1.17;;
72761;SDS011;60886;55.034;73.150;2022-08-19T00:02:44;2.42;;;0.60;;
72761;SDS011;60886;55.034;73.150;2022-08-19T00:05:13;4.80;;;0.90;;
72761;SDS011;60886;55.034;73.150;2022-08-19T00:07:47;2.63;;;0.60;;
72761;SDS011;60886;55.034;73.150;2022-08-19T00:10:23;2.72;;;0.80;;
72761;SDS011;60886;55.034;73.150;2022-08-19T00:13:01;3.63;;;0.90;;
72761;SDS011;60886;55.034;73.150;2022-08-19T00:15:27;2.85;;;0.70;;
72761;SDS011;60886;55.034;73.150;2022-08-19T00:18:03;3.63;;;0.80;;
72761;SDS011;60886;55.034;73.150;2022-08-19T00:20:41;1.67;;;0.55;;
72761;SDS011;60886;55.034;73.150;2022-08-19T00:23:08;3.35;;;0.90;;
72761;SDS011;60886;55.034;73.150;2022-08-19T00:25:45;3.63;;;0.80;;
72761;SDS011;60886;55.034;73.150;2022-08-19T00:28:11;11.05;;;4.22;;
72761;SDS011;60886;55.034;73.150;2022-08-19T00:30:48;3.28;;;0.80;;
72761;SDS011;60886;55.034;73.150;2022-08-19T00:33:15;2.58;;;0.55;;
72761;SDS011;60886;55.034;73.150;2022-08-19T00:35:54;2.83;;;0.73;;
72761;SDS011;60886;55.034;73.150;2022-08-19T00:38:32;2.20;;;0.67;;
72761;SDS011;60886;55.034;73.150;2022-08-19T00:41:12;2.38;;;0.63;;
72761;SDS011;60886;55.034;73.150;2022-08-19T00:43:56;4.60;;;0.73;;
72761;SDS011;60886;55.034;73.150;2022-08-19T00:46:46;5.32;;;1.70;;
72761;SDS011;60886;55.034;73.150;2022-08-19T00:52:15;2.47;;;0.70;;
72761;SDS011;60886;55.034;73.150;2022-08-19T00:54:46;5.85;;;1.10;;
72761;SDS011;60886;55.034;73.150;2022-08-19T00:57:15;1.85;;;0.60;;
72761;SDS011;60886;55.034;73.150;2022-08-19T00:59:44;3.22;;;0.60;;
72761;SDS011;60886;55.034;73.150;2022-08-19T01:02:13;3.80;;;0.70;;
72761;SDS011;60886;55.034;73.150;2022-08-19T01:04:41;3.37;;;0.80;;
72761;SDS011;60886;55.034;73.150;2022-08-19T01:07:10;3.55;;;0.80;;
72761;SDS011;60886;55.034;73.150;2022-08-19T01:09:53;2.08;;;0.50;;
72761;SDS011;60886;55.034;73.150;2022-08-19T01:12:20;4.55;;;0.70;;
72761;SDS011;60886;55.034;73.150;2022-08-19T01:14:47;2.85;;;0.70;;
72761;SDS011;60886;55.034;73.150;2022-08-19T01:17:14;3.53;;;0.77;;
72761;SDS011;60886;55.034;73.150;2022-08-19T01:19:42;4.60;;;0.70;;
72761;SDS011;60886;55.034;73.150;2022-08-19T01:24:54;2.72;;;0.70;;
72761;SDS011;60886;55.034;73.150;2022-08-19T01:27:21;3.33;;;0.73;;
72761;SDS011;60886;55.034;73.150;2022-08-19T01:29:49;4.17;;;0.90;;
72761;SDS011;60886;55.034;73.150;2022-08-19T01:32:16;3.45;;;0.80;;
72761;SDS011;60886;55.034;73.150;2022-08-19T01:34:53;3.17;;;0.80;;
72761;SDS011;60886;55.034;73.150;2022-08-19T01:37:19;4.53;;;0.80;;
72761;SDS011;60886;55.034;73.150;2022-08-19T01:39:45;4.53;;;0.60;;
72761;SDS011;60886;55.034;73.150;2022-08-19T01:42:12;3.30;;;0.77;;
72761;SDS011;60886;55.034;73.150;2022-08-19T01:44:39;4.00;;;0.80;;
72761;SDS011;60886;55.034;73.150;2022-08-19T01:47:09;5.63;;;0.80;;
72761;SDS011;60886;55.034;73.150;2022-08-19T01:49:36;3.70;;;0.80;;
72761;SDS011;60886;55.034;73.150;2022-08-19T01:52:04;3.53;;;0.70;;
72761;SDS011;60886;55.034;73.150;2022-08-19T01:54:34;5.50;;;0.77;;
72761;SDS011;60886;55.034;73.150;2022-08-19T01:57:02;3.65;;;0.70;;
72761;SDS011;60886;55.034;73.150;2022-08-19T01:59:31;3.80;;;0.80;;
72761;SDS011;60886;55.034;73.150;2022-08-19T02:02:04;5.25;;;0.75;;
72761;SDS011;60886;55.034;73.150;2022-08-19T02:04:33;3.38;;;0.70;;
72761;SDS011;60886;55.034;73.150;2022-08-19T02:07:00;4.47;;;0.80;;
72761;SDS011;60886;55.034;73.150;2022-08-19T02:09:29;2.50;;;0.70;;
72761;SDS011;60886;55.034;73.150;2022-08-19T02:11:57;2.85;;;0.73;;
72761;SDS011;60886;55.034;73.150;2022-08-19T02:14:24;4.70;;;0.80;;
72761;SDS011;60886;55.034;73.150;2022-08-19T02:16:50;4.05;;;0.70;;
72761;SDS011;60886;55.034;73.150;2022-08-19T02:19:17;5.20;;;0.90;;
72761;SDS011;60886;55.034;73.150;2022-08-19T02:21:50;5.25;;;0.90;;
72761;SDS011;60886;55.034;73.150;2022-08-19T02:24:27;2.53;;;0.80;;
72761;SDS011;60886;55.034;73.150;2022-08-19T02:26:54;3.42;;;0.80;;
72761;SDS011;60886;55.034;73.150;2022-08-19T02:29:20;3.90;;;1.00;;
72761;SDS011;60886;55.034;73.150;2022-08-19T02:31:47;4.57;;;0.90;;
72761;SDS011;60886;55.034;73.150;2022-08-19T02:34:14;3.38;;;0.70;;
72761;SDS011;60886;55.034;73.150;2022-08-19T02:36:40;4.40;;;0.90;;
72761;SDS011;60886;55.034;73.150;2022-08-19T02:39:22;4.15;;;0.73;;
72761;SDS011;60886;55.034;73.150;2022-08-19T02:41:48;3.85;;;0.90;;
72761;SDS011;60886;55.034;73.150;2022-08-19T02:44:15;4.40;;;0.90;;
72761;SDS011;60886;55.034;73.150;2022-08-19T02:46:46;3.20;;;0.90;;
72761;SDS011;60886;55.034;73.150;2022-08-19T02:49:16;4.35;;;0.75;;
72761;SDS011;60886;55.034;73.150;2022-08-19T02:51:44;2.72;;;0.70;;
72761;SDS011;60886;55.034;73.150;2022-08-19T02:54:12;2.67;;;0.70;;
72761;SDS011;60886;55.034;73.150;2022-08-19T02:56:40;2.83;;;0.70;;
72761;SDS011;60886;55.034;73.150;2022-08-19T02:59:07;3.72;;;1.00;;
72761;SDS011;60886;55.034;73.150;2022-08-19T04:00:07;3.30;;;0.77;;
72761;SDS011;60886;55.034;73.150;2022-08-19T04:02:40;3.60;;;0.80;;
72761;SDS011;60886;55.034;73.150;2022-08-19T04:05:07;2.90;;;0.80;;
72761;SDS011;60886;55.034;73.150;2022-08-19T04:07:34;4.47;;;0.80;;
72761;SDS011;60886;55.034;73.150;2022-08-19T04:10:11;5.80;;;1.00;;
72761;SDS011;60886;55.034;73.150;2022-08-19T04:12:40;3.60;;;0.90;;
72761;SDS011;60886;55.034;73.150;2022-08-19T04:15:13;6.07;;;1.08;;
72761;SDS011;60886;55.034;73.150;2022-08-19T04:17:46;3.53;;;0.93;;
72761;SDS011;60886;55.034;73.150;2022-08-19T04:20:12;4.28;;;1.00;;
72761;SDS011;60886;55.034;73.150;2022-08-19T04:22:48;4.40;;;1.00;;
72761;SDS011;60886;55.034;73.150;2022-08-19T04:25:20;5.97;;;1.00;;
72761;SDS011;60886;55.034;73.150;2022-08-19T04:27:56;5.22;;;1.00;;
72761;SDS011;60886;55.034;73.150;2022-08-19T04:30:28;2.75;;;0.80;;
72761;SDS011;60886;55.034;73.150;2022-08-19T04:33:05;3.45;;;0.80;;
72761;SDS011;60886;55.034;73.150;2022-08-19T04:35:42;3.70;;;0.90;;
72761;SDS011;60886;55.034;73.150;2022-08-19T04:38:10;4.72;;;0.93;;
72761;SDS011;60886;55.034;73.150;2022-08-19T04:40:41;7.20;;;1.17;;
72761;SDS011;60886;55.034;73.150;2022-08-19T04:43:36;3.90;;;0.90;;
72761;SDS011;60886;55.034;73.150;2022-08-19T04:46:05;3.75;;;0.77;;
72761;SDS011;60886;55.034;73.150;2022-08-19T04:48:36;4.13;;;0.90;;
72761;SDS011;60886;55.034;73.150;2022-08-19T04:51:05;3.58;;;0.90;;
72761;SDS011;60886;55.034;73.150;2022-08-19T04:53:42;4.50;;;0.88;;
72761;SDS011;60886;55.034;73.150;2022-08-19T04:56:13;5.18;;;0.90;;
72761;SDS011;60886;55.034;73.150;2022-08-19T04:58:41;3.50;;;0.82;;
72761;SDS011;60886;55.034;73.150;2022-08-19T05:01:11;5.27;;;0.90;;
72761;SDS011;60886;55.034;73.150;2022-08-19T05:03:39;4.00;;;1.00;;
72761;SDS011;60886;55.034;73.150;2022-08-19T05:06:06;5.70;;;1.08;;
72761;SDS011;60886;55.034;73.150;2022-08-19T05:08:36;3.30;;;0.98;;
72761;SDS011;60886;55.034;73.150;2022-08-19T05:11:08;4.13;;;0.90;;
72761;SDS011;60886;55.034;73.150;2022-08-19T05:13:36;5.13;;;1.17;;
72761;SDS011;60886;55.034;73.150;2022-08-19T05:16:09;5.47;;;1.10;;
72761;SDS011;60886;55.034;73.150;2022-08-19T05:18:38;3.58;;;0.90;;
72761;SDS011;60886;55.034;73.150;2022-08-19T05:21:24;4.22;;;1.08;;
72761;SDS011;60886;55.034;73.150;2022-08-19T05:24:09;5.38;;;1.00;;
72761;SDS011;60886;55.034;73.150;2022-08-19T05:26:40;5.30;;;0.90;;
72761;SDS011;60886;55.034;73.150;2022-08-19T05:29:09;5.00;;;0.98;;
72761;SDS011;60886;55.034;73.150;2022-08-19T05:31:38;6.10;;;1.17;;
72761;SDS011;60886;55.034;73.150;2022-08-19T05:34:09;4.35;;;1.05;;
72761;SDS011;60886;55.034;73.150;2022-08-19T05:36:38;4.95;;;1.20;;
72761;SDS011;60886;55.034;73.150;2022-08-19T05:39:15;4.00;;;0.90;;
72761;SDS011;60886;55.034;73.150;2022-08-19T05:41:47;4.10;;;1.00;;
72761;SDS011;60886;55.034;73.150;2022-08-19T05:44:20;3.92;;;1.00;;
72761;SDS011;60886;55.034;73.150;2022-08-19T05:46:47;4.50;;;0.98;;
72761;SDS011;60886;55.034;73.150;2022-08-19T05:49:14;4.80;;;1.00;;
72761;SDS011;60886;55.034;73.150;2022-08-19T05:51:46;5.63;;;1.20;;
72761;SDS011;60886;55.034;73.150;2022-08-19T05:54:15;4.78;;;1.00;;
72761;SDS011;60886;55.034;73.150;2022-08-19T05:56:42;4.30;;;0.98;;
72761;SDS011;60886;55.034;73.150;2022-08-19T05:59:20;3.70;;;1.00;;
72761;SDS011;60886;55.034;73.150;2022-08-19T06:01:48;4.07;;;0.90;;
72761;SDS011;60886;55.034;73.150;2022-08-19T06:04:16;5.47;;;1.00;;
72761;SDS011;60886;55.034;73.150;2022-08-19T06:06:46;3.65;;;1.30;;
72761;SDS011;60886;55.034;73.150;2022-08-19T06:09:20;4.40;;;1.30;;
72761;SDS011;60886;55.034;73.150;2022-08-19T06:11:55;4.95;;;1.08;;
72761;SDS011;60886;55.034;73.150;2022-08-19T06:14:27;4.93;;;1.10;;
72761;SDS011;60886;55.034;73.150;2022-08-19T06:16:58;3.88;;;1.10;;
72761;SDS011;60886;55.034;73.150;2022-08-19T06:19:27;4.88;;;1.10;;
72761;SDS011;60886;55.034;73.150;2022-08-19T06:21:58;4.93;;;1.38;;
72761;SDS011;60886;55.034;73.150;2022-08-19T06:24:27;3.38;;;1.00;;
72761;SDS011;60886;55.034;73.150;2022-08-19T06:26:55;4.97;;;1.15;;
72761;SDS011;60886;55.034;73.150;2022-08-19T06:29:23;4.18;;;1.00;;
72761;SDS011;60886;55.034;73.150;2022-08-19T06:31:52;7.95;;;1.30;;
72761;SDS011;60886;55.034;73.150;2022-08-19T06:34:30;8.07;;;1.35;;
72761;SDS011;60886;55.034;73.150;2022-08-19T06:36:59;4.47;;;1.00;;
72761;SDS011;60886;55.034;73.150;2022-08-19T06:39:30;5.35;;;1.10;;
72761;SDS011;60886;55.034;73.150;2022-08-19T06:42:00;6.40;;;1.20;;
72761;SDS011;60886;55.034;73.150;2022-08-19T06:44:29;10.05;;;1.55;;
72761;SDS011;60886;55.034;73.150;2022-08-19T06:47:01;6.10;;;1.27;;
72761;SDS011;60886;55.034;73.150;2022-08-19T06:49:29;7.47;;;1.27;;
72761;SDS011;60886;55.034;73.150;2022-08-19T06:51:59;7.90;;;2.13;;
72761;SDS011;60886;55.034;73.150;2022-08-19T06:54:26;7.68;;;1.15;;
72761;SDS011;60886;55.034;73.150;2022-08-19T06:56:55;4.35;;;0.98;;
72761;SDS011;60886;55.034;73.150;2022-08-19T06:59:24;4.35;;;1.00;;
72761;SDS011;60886;55.034;73.150;2022-08-19T07:01:55;5.10;;;1.10;;
72761;SDS011;60886;55.034;73.150;2022-08-19T07:04:24;5.72;;;1.30;;
72761;SDS011;60886;55.034;73.150;2022-08-19T07:07:00;6.05;;;1.40;;
72761;SDS011;60886;55.034;73.150;2022-08-19T07:09:29;5.05;;;1.25;;
72761;SDS011;60886;55.034;73.150;2022-08-19T07:11:57;5.32;;;1.50;;
72761;SDS011;60886;55.034;73.150;2022-08-19T07:14:25;4.88;;;1.58;;
72761;SDS011;60886;55.034;73.150;2022-08-19T07:16:53;6.57;;;1.75;;
72761;SDS011;60886;55.034;73.150;2022-08-19T07:19:22;6.07;;;1.60;;
72761;SDS011;60886;55.034;73.150;2022-08-19T07:21:52;7.63;;;1.60;;
72761;SDS011;60886;55.034;73.150;2022-08-19T07:24:24;5.75;;;1.90;;
72761;SDS011;60886;55.034;73.150;2022-08-19T07:26:54;6.97;;;1.90;;
72761;SDS011;60886;55.034;73.150;2022-08-19T07:29:22;6.22;;;1.70;;
72761;SDS011;60886;55.034;73.150;2022-08-19T07:31:50;6.85;;;1.88;;
72761;SDS011;60886;55.034;73.150;2022-08-19T07:34:17;6.70;;;1.70;;
72761;SDS011;60886;55.034;73.150;2022-08-19T07:36:45;7.85;;;1.77;;
72761;SDS011;60886;55.034;73.150;2022-08-19T07:39:21;6.53;;;1.92;;
72761;SDS011;60886;55.034;73.150;2022-08-19T07:41:50;5.40;;;1.90;;
72761;SDS011;60886;55.034;73.150;2022-08-19T07:44:16;5.95;;;1.60;;
72761;SDS011;60886;55.034;73.150;2022-08-19T07:46:45;5.20;;;1.55;;
72761;SDS011;60886;55.034;73.150;2022-08-19T07:49:16;4.82;;;1.60;;
72761;SDS011;60886;55.034;73.150;2022-08-19T07:51:46;6.13;;;2.08;;
72761;SDS011;60886;55.034;73.150;2022-08-19T07:54:15;5.18;;;1.65;;
72761;SDS011;60886;55.034;73.150;2022-08-19T07:56:42;6.20;;;1.88;;
72761;SDS011;60886;55.034;73.150;2022-08-19T07:59:09;6.40;;;1.85;;
72761;SDS011;60886;55.034;73.150;2022-08-19T08:01:35;5.05;;;1.60;;
72761;SDS011;60886;55.034;73.150;2022-08-19T08:04:12;7.72;;;1.70;;
72761;SDS011;60886;55.034;73.150;2022-08-19T08:06:58;5.70;;;1.83;;
72761;SDS011;60886;55.034;73.150;2022-08-19T08:09:43;6.38;;;1.90;;
72761;SDS011;60886;55.034;73.150;2022-08-19T08:12:14;5.88;;;1.75;;
72761;SDS011;60886;55.034;73.150;2022-08-19T08:17:15;5.35;;;1.70;;
72761;SDS011;60886;55.034;73.150;2022-08-19T08:19:44;5.40;;;1.70;;
72761;SDS011;60886;55.034;73.150;2022-08-19T08:22:13;7.95;;;1.98;;
72761;SDS011;60886;55.034;73.150;2022-08-19T08:25:05;5.43;;;1.73;;
72761;SDS011;60886;55.034;73.150;2022-08-19T08:27:40;6.30;;;2.00;;
72761;SDS011;60886;55.034;73.150;2022-08-19T08:30:08;6.75;;;2.05;;
72761;SDS011;60886;55.034;73.150;2022-08-19T08:32:37;6.93;;;1.98;;
72761;SDS011;60886;55.034;73.150;2022-08-19T08:35:05;7.13;;;1.98;;
72761;SDS011;60886;55.034;73.150;2022-08-19T08:37:34;6.10;;;1.95;;
72761;SDS011;60886;55.034;73.150;2022-08-19T08:40:08;6.90;;;2.13;;
72761;SDS011;60886;55.034;73.150;2022-08-19T08:43:06;7.40;;;1.90;;
72761;SDS011;60886;55.034;73.150;2022-08-19T08:45:44;7.47;;;1.63;;
72761;SDS011;60886;55.034;73.150;2022-08-19T08:48:22;7.40;;;1.80;;
72761;SDS011;60886;55.034;73.150;2022-08-19T08:51:11;7.75;;;1.70;;
72761;SDS011;60886;55.034;73.150;2022-08-19T08:53:42;5.97;;;1.70;;
72761;SDS011;60886;55.034;73.150;2022-08-19T08:56:20;5.63;;;1.70;;
72761;SDS011;60886;55.034;73.150;2022-08-19T08:58:54;5.75;;;1.70;;
72761;SDS011;60886;55.034;73.150;2022-08-19T09:01:43;5.32;;;1.80;;
72761;SDS011;60886;55.034;73.150;2022-08-19T09:04:09;6.95;;;1.85;;
72761;SDS011;60886;55.034;73.150;2022-08-19T09:09:40;6.32;;;1.80;;
72761;SDS011;60886;55.034;73.150;2022-08-19T09:12:21;6.00;;;1.73;;
72761;SDS011;60886;55.034;73.150;2022-08-19T09:15:02;6.55;;;1.67;;
72761;SDS011;60886;55.034;73.150;2022-08-19T09:17:32;6.80;;;2.20;;
72761;SDS011;60886;55.034;73.150;2022-08-19T09:22:49;9.07;;;3.00;;
72761;SDS011;60886;55.034;73.150;2022-08-19T09:25:17;12.02;;;3.08;;
72761;SDS011;60886;55.034;73.150;2022-08-19T09:27:55;8.82;;;2.90;;
72761;SDS011;60886;55.034;73.150;2022-08-19T09:30:25;7.90;;;3.08;;
72761;SDS011;60886;55.034;73.150;2022-08-19T09:32:53;8.85;;;3.05;;
72761;SDS011;60886;55.034;73.150;2022-08-19T09:35:21;8.75;;;3.20;;
72761;SDS011;60886;55.034;73.150;2022-08-19T09:37:49;9.88;;;3.20;;
72761;SDS011;60886;55.034;73.150;2022-08-19T09:40:17;9.10;;;3.28;;
72761;SDS011;60886;55.034;73.150;2022-08-19T09:42:44;10.00;;;3.42;;
72761;SDS011;60886;55.034;73.150;2022-08-19T09:45:17;10.25;;;3.33;;
72761;SDS011;60886;55.034;73.150;2022-08-19T09:47:48;10.27;;;3.50;;
72761;SDS011;60886;55.034;73.150;2022-08-19T09:50:18;9.38;;;3.78;;
72761;SDS011;60886;55.034;73.150;2022-08-19T09:52:45;9.35;;;3.60;;
72761;SDS011;60886;55.034;73.150;2022-08-19T09:55:12;10.25;;;3.30;;
72761;SDS011;60886;55.034;73.150;2022-08-19T09:57:38;8.27;;;3.08;;
72761;SDS011;60886;55.034;73.150;2022-08-19T10:00:06;8.57;;;2.90;;
72761;SDS011;60886;55.034;73.150;2022-08-19T10:02:35;9.38;;;2.75;;
72761;SDS011;60886;55.034;73.150;2022-08-19T10:05:01;8.98;;;2.60;;
72761;SDS011;60886;55.034;73.150;2022-08-19T10:07:46;8.50;;;2.60;;
72761;SDS011;60886;55.034;73.150;2022-08-19T10:10:13;7.32;;;2.50;;
72761;SDS011;60886;55.034;73.150;2022-08-19T10:12:39;7.65;;;3.10;;
72761;SDS011;60886;55.034;73.150;2022-08-19T10:15:06;8.30;;;2.63;;
72761;SDS011;60886;55.034;73.150;2022-08-19T10:17:43;7.95;;;2.55;;
72761;SDS011;60886;55.034;73.150;2022-08-19T10:20:10;7.05;;;2.72;;
72761;SDS011;60886;55.034;73.150;2022-08-19T10:22:36;7.32;;;2.40;;
72761;SDS011;60886;55.034;73.150;2022-08-19T10:25:04;7.18;;;2.45;;
72761;SDS011;60886;55.034;73.150;2022-08-19T10:27:31;7.80;;;2.50;;
72761;SDS011;60886;55.034;73.150;2022-08-19T10:29:57;7.93;;;2.78;;
72761;SDS011;60886;55.034;73.150;2022-08-19T10:32:25;7.40;;;2.60;;
72761;SDS011;60886;55.034;73.150;2022-08-19T10:34:51;7.53;;;2.58;;
72761;SDS011;60886;55.034;73.150;2022-08-19T10:37:18;6.55;;;2.60;;
72761;SDS011;60886;55.034;73.150;2022-08-19T10:39:45;6.75;;;2.40;;
72761;SDS011;60886;55.034;73.150;2022-08-19T10:42:13;7.20;;;2.67;;
72761;SDS011;60886;55.034;73.150;2022-08-19T10:44:41;7.80;;;2.75;;
72761;SDS011;60886;55.034;73.150;2022-08-19T10:47:10;9.38;;;2.75;;
72761;SDS011;60886;55.034;73.150;2022-08-19T10:49:37;7.15;;;2.78;;
72761;SDS011;60886;55.034;73.150;2022-08-19T10:52:23;7.70;;;2.80;;
72761;SDS011;60886;55.034;73.150;2022-08-19T10:55:00;7.72;;;2.90;;
72761;SDS011;60886;55.034;73.150;2022-08-19T10:57:45;8.15;;;3.03;;
72761;SDS011;60886;55.034;73.150;2022-08-19T11:00:13;7.68;;;3.22;;
72761;SDS011;60886;55.034;73.150;2022-08-19T11:02:39;6.75;;;2.60;;
72761;SDS011;60886;55.034;73.150;2022-08-19T11:05:07;6.50;;;2.60;;
72761;SDS011;60886;55.034;73.150;2022-08-19T11:07:40;6.63;;;2.58;;
72761;SDS011;60886;55.034;73.150;2022-08-19T11:10:08;7.05;;;2.47;;
72761;SDS011;60886;55.034;73.150;2022-08-19T11:12:39;6.15;;;2.25;;
72761;SDS011;60886;55.034;73.150;2022-08-19T11:15:09;7.90;;;2.25;;
72761;SDS011;60886;55.034;73.150;2022-08-19T11:17:39;6.60;;;2.50;;
72761;SDS011;60886;55.034;73.150;2022-08-19T11:20:07;6.32;;;2.40;;
72761;SDS011;60886;55.034;73.150;2022-08-19T11:22:34;6.38;;;2.40;;
72761;SDS011;60886;55.034;73.150;2022-08-19T11:25:05;5.97;;;2.25;;
72761;SDS011;60886;55.034;73.150;2022-08-19T11:27:33;6.40;;;1.98;;
72761;SDS011;60886;55.034;73.150;2022-08-19T11:30:03;6.32;;;2.20;;
72761;SDS011;60886;55.034;73.150;2022-08-19T11:32:30;6.50;;;2.00;;
72761;SDS011;60886;55.034;73.150;2022-08-19T11:34:57;6.25;;;2.30;;
72761;SDS011;60886;55.034;73.150;2022-08-19T11:37:23;6.22;;;2.05;;
72761;SDS011;60886;55.034;73.150;2022-08-19T11:39:49;7.35;;;2.20;;
72761;SDS011;60886;55.034;73.150;2022-08-19T11:42:16;6.65;;;2.15;;
72761;SDS011;60886;55.034;73.150;2022-08-19T11:45:02;6.80;;;2.33;;
72761;SDS011;60886;55.034;73.150;2022-08-19T11:47:39;7.20;;;2.30;;
72761;SDS011;60886;55.034;73.150;2022-08-19T11:50:05;6.32;;;2.58;;
72761;SDS011;60886;55.034;73.150;2022-08-19T11:52:32;6.82;;;2.40;;
72761;SDS011;60886;55.034;73.150;2022-08-19T11:54:58;6.68;;;2.45;;
72761;SDS011;60886;55.034;73.150;2022-08-19T11:57:31;7.63;;;2.88;;
72761;SDS011;60886;55.034;73.150;2022-08-19T11:59:57;8.25;;;2.40;;
72761;SDS011;60886;55.034;73.150;2022-08-19T12:02:34;7.68;;;2.70;;
72761;SDS011;60886;55.034;73.150;2022-08-19T12:05:00;7.00;;;2.53;;
72761;SDS011;60886;55.034;73.150;2022-08-19T12:07:29;6.20;;;2.08;;
72761;SDS011;60886;55.034;73.150;2022-08-19T12:09:59;6.18;;;1.98;;
72761;SDS011;60886;55.034;73.150;2022-08-19T12:12:26;6.97;;;2.10;;
72761;SDS011;60886;55.034;73.150;2022-08-19T12:14:53;5.82;;;2.00;;
72761;SDS011;60886;55.034;73.150;2022-08-19T12:17:24;5.97;;;1.90;;
72761;SDS011;60886;55.034;73.150;2022-08-19T12:19:52;6.40;;;2.05;;
72761;SDS011;60886;55.034;73.150;2022-08-19T12:22:20;6.00;;;2.00;;
72761;SDS011;60886;55.034;73.150;2022-08-19T12:24:47;6.43;;;1.88;;
72761;SDS011;60886;55.034;73.150;2022-08-19T12:27:16;6.28;;;1.90;;
72761;SDS011;60886;55.034;73.150;2022-08-19T12:29:42;5.70;;;1.90;;
72761;SDS011;60886;55.034;73.150;2022-08-19T12:32:09;8.05;;;2.00;;
72761;SDS011;60886;55.034;73.150;2022-08-19T12:34:35;6.60;;;1.77;;
72761;SDS011;60886;55.034;73.150;2022-08-19T12:37:03;5.93;;;2.08;;
72761;SDS011;60886;55.034;73.150;2022-08-19T12:39:35;6.97;;;2.35;;
72761;SDS011;60886;55.034;73.150;2022-08-19T12:42:04;6.53;;;2.30;;
72761;SDS011;60886;55.034;73.150;2022-08-19T12:44:31;7.60;;;2.67;;
72761;SDS011;60886;55.034;73.150;2022-08-19T12:46:58;7.40;;;2.47;;
72761;SDS011;60886;55.034;73.150;2022-08-19T12:49:24;6.97;;;2.33;;
72761;SDS011;60886;55.034;73.150;2022-08-19T12:51:54;7.82;;;2.47;;
72761;SDS011;60886;55.034;73.150;2022-08-19T12:54:20;7.10;;;2.75;;
72761;SDS011;60886;55.034;73.150;2022-08-19T12:56:47;7.07;;;2.60;;
72761;SDS011;60886;55.034;73.150;2022-08-19T12:59:13;8.05;;;2.63;;
72761;SDS011;60886;55.034;73.150;2022-08-19T13:01:43;6.63;;;2.40;;
72761;SDS011;60886;55.034;73.150;2022-08-19T13:04:11;7.50;;;2.42;;
72761;SDS011;60886;55.034;73.150;2022-08-19T13:06:37;6.78;;;2.28;;
72761;SDS011;60886;55.034;73.150;2022-08-19T13:09:04;7.10;;;2.40;;
72761;SDS011;60886;55.034;73.150;2022-08-19T13:11:31;8.57;;;2.80;;
72761;SDS011;60886;55.034;73.150;2022-08-19T13:13:59;7.03;;;2.70;;
72761;SDS011;60886;55.034;73.150;2022-08-19T13:16:27;6.88;;;2.42;;
72761;SDS011;60886;55.034;73.150;2022-08-19T13:18:54;7.10;;;2.45;;
72761;SDS011;60886;55.034;73.150;2022-08-19T13:21:23;7.85;;;2.55;;
72761;SDS011;60886;55.034;73.150;2022-08-19T13:23:51;6.97;;;2.35;;
72761;SDS011;60886;55.034;73.150;2022-08-19T13:26:18;6.72;;;2.35;;
72761;SDS011;60886;55.034;73.150;2022-08-19T13:28:45;6.53;;;1.98;;
72761;SDS011;60886;55.034;73.150;2022-08-19T13:31:32;6.90;;;2.53;;
72761;SDS011;60886;55.034;73.150;2022-08-19T13:34:19;6.20;;;2.20;;
72761;SDS011;60886;55.034;73.150;2022-08-19T13:36:54;7.20;;;2.50;;
72761;SDS011;60886;55.034;73.150;2022-08-19T13:39:20;7.55;;;2.63;;
72761;SDS011;60886;55.034;73.150;2022-08-19T13:41:48;7.78;;;3.05;;
72761;SDS011;60886;55.034;73.150;2022-08-19T13:44:17;8.88;;;3.63;;
72761;SDS011;60886;55.034;73.150;2022-08-19T13:47:03;7.85;;;2.75;;
72761;SDS011;60886;55.034;73.150;2022-08-19T13:49:33;8.52;;;2.72;;
72761;SDS011;60886;55.034;73.150;2022-08-19T13:52:02;7.82;;;2.70;;
72761;SDS011;60886;55.034;73.150;2022-08-19T13:54:30;7.32;;;2.60;;
72761;SDS011;60886;55.034;73.150;2022-08-19T13:56:56;7.32;;;2.47;;
72761;SDS011;60886;55.034;73.150;2022-08-19T13:59:23;7.28;;;2.35;;
72761;SDS011;60886;55.034;73.150;2022-08-19T14:01:50;7.47;;;2.58;;
72761;SDS011;60886;55.034;73.150;2022-08-19T14:04:17;8.30;;;2.50;;
72761;SDS011;60886;55.034;73.150;2022-08-19T14:06:43;7.55;;;2.50;;
72761;SDS011;60886;55.034;73.150;2022-08-19T14:09:10;6.82;;;2.45;;
72761;SDS011;60886;55.034;73.150;2022-08-19T14:11:36;7.70;;;2.60;;
72761;SDS011;60886;55.034;73.150;2022-08-19T14:14:03;7.45;;;2.20;;
72761;SDS011;60886;55.034;73.150;2022-08-19T14:16:30;6.90;;;2.40;;
72761;SDS011;60886;55.034;73.150;2022-08-19T14:18:56;7.20;;;2.47;;
72761;SDS011;60886;55.034;73.150;2022-08-19T14:21:23;6.97;;;2.50;;
72761;SDS011;60886;55.034;73.150;2022-08-19T14:23:56;6.78;;;2.40;;
72761;SDS011;60886;55.034;73.150;2022-08-19T14:26:23;7.75;;;2.50;;
72761;SDS011;60886;55.034;73.150;2022-08-19T14:28:50;8.18;;;2.67;;
72761;SDS011;60886;55.034;73.150;2022-08-19T14:31:18;9.35;;;2.75;;
72761;SDS011;60886;55.034;73.150;2022-08-19T14:33:46;8.88;;;2.80;;
72761;SDS011;60886;55.034;73.150;2022-08-19T14:36:14;8.00;;;2.83;;
72761;SDS011;60886;55.034;73.150;2022-08-19T14:38:50;7.30;;;2.67;;
72761;SDS011;60886;55.034;73.150;2022-08-19T14:41:19;7.35;;;2.60;;
72761;SDS011;60886;55.034;73.150;2022-08-19T14:43:47;8.40;;;2.63;;
72761;SDS011;60886;55.034;73.150;2022-08-19T14:46:16;8.32;;;2.85;;
72761;SDS011;60886;55.034;73.150;2022-08-19T14:48:52;7.72;;;2.83;;
72761;SDS011;60886;55.034;73.150;2022-08-19T14:51:20;8.48;;;3.00;;
72761;SDS011;60886;55.034;73.150;2022-08-19T14:53:48;8.27;;;3.05;;
72761;SDS011;60886;55.034;73.150;2022-08-19T14:56:16;7.78;;;2.70;;
72761;SDS011;60886;55.034;73.150;2022-08-19T14:58:49;7.97;;;2.70;;
72761;SDS011;60886;55.034;73.150;2022-08-19T15:01:19;8.60;;;2.80;;
72761;SDS011;60886;55.034;73.150;2022-08-19T15:03:47;8.30;;;2.97;;
72761;SDS011;60886;55.034;73.150;2022-08-19T15:06:14;8.38;;;3.05;;
72761;SDS011;60886;55.034;73.150;2022-08-19T15:08:42;9.73;;;3.30;;
72761;SDS011;60886;55.034;73.150;2022-08-19T15:11:12;8.80;;;3.40;;
72761;SDS011;60886;55.034;73.150;2022-08-19T15:13:42;10.68;;;3.15;;
72761;SDS011;60886;55.034;73.150;2022-08-19T15:16:10;8.80;;;3.15;;
72761;SDS011;60886;55.034;73.150;2022-08-19T15:18:37;8.40;;;3.00;;
72761;SDS011;60886;55.034;73.150;2022-08-19T15:21:04;8.13;;;2.70;;
72761;SDS011;60886;55.034;73.150;2022-08-19T15:23:30;8.05;;;3.00;;
72761;SDS011;60886;55.034;73.150;2022-08-19T15:25:57;8.32;;;2.85;;
72761;SDS011;60886;55.034;73.150;2022-08-19T15:28:24;7.90;;;3.05;;
72761;SDS011;60886;55.034;73.150;2022-08-19T15:30:57;8.43;;;3.08;;
72761;SDS011;60886;55.034;73.150;2022-08-19T15:33:23;10.55;;;4.65;;
72761;SDS011;60886;55.034;73.150;2022-08-19T15:35:50;13.60;;;5.82;;
72761;SDS011;60886;55.034;73.150;2022-08-19T15:38:17;14.32;;;5.50;;
72761;SDS011;60886;55.034;73.150;2022-08-19T15:40:47;10.32;;;4.15;;
72761;SDS011;60886;55.034;73.150;2022-08-19T15:43:15;11.27;;;4.13;;
72761;SDS011;60886;55.034;73.150;2022-08-19T15:45:43;9.18;;;4.18;;
72761;SDS011;60886;55.034;73.150;2022-08-19T15:48:10;11.43;;;5.25;;
72761;SDS011;60886;55.034;73.150;2022-08-19T15:50:36;11.50;;;5.43;;
72761;SDS011;60886;55.034;73.150;2022-08-19T15:53:06;11.43;;;5.10;;
72761;SDS011;60886;55.034;73.150;2022-08-19T15:55:42;12.38;;;4.57;;
72761;SDS011;60886;55.034;73.150;2022-08-19T15:58:11;11.48;;;4.30;;
72761;SDS011;60886;55.034;73.150;2022-08-19T16:00:58;10.32;;;4.18;;
72761;SDS011;60886;55.034;73.150;2022-08-19T16:03:44;11.07;;;4.25;;